Time;durP1;ratioP1;P1;durP2;ratioP2;P2;SDS_P1;SDS_P2;PMS_P1;PMS_P2;Temp;Humidity;BMP_temperature;BMP_pressure;BME280_temperature;BME280_humidity;BME280_pressure;Samples;Min_cycle;Max_cycle;Signal;HPM_P1;HPM_P2
2021/06/09 00:01:02;;;;;;;3.30;2.85;;;;;;;;;;5098314;28;20012;-70
2021/06/09 00:03:29;;;;;;;5.40;3.20;;;;;;;;;;5102010;28;20521;-70
2021/06/09 00:05:55;;;;;;;4.03;3.45;;;;;;;;;;5114408;28;20028;-70
2021/06/09 00:08:21;;;;;;;5.20;3.15;;;;;;;;;;5108814;28;20020;-71
2021/06/09 00:10:50;;;;;;;3.28;2.90;;;;;;;;;;5107413;28;20024;-71
2021/06/09 00:13:17;;;;;;;4.47;3.03;;;;;;;;;;5107378;28;20374;-71
2021/06/09 00:15:43;;;;;;;5.22;2.97;;;;;;;;;;5093362;28;20043;-71
2021/06/09 00:18:09;;;;;;;4.07;3.45;;;;;;;;;;5093492;28;20028;-68
2021/06/09 00:20:36;;;;;;;3.92;3.15;;;;;;;;;;5109611;28;20575;-71
2021/06/09 00:23:02;;;;;;;6.68;3.40;;;;;;;;;;5105365;28;20073;-71
2021/06/09 00:25:28;;;;;;;3.53;3.03;;;;;;;;;;5092957;28;20032;-70
2021/06/09 00:27:55;;;;;;;3.97;3.10;;;;;;;;;;5075699;28;20048;-70
2021/06/09 00:30:31;;;;;;;3.20;2.90;;;;;;;;;;5106309;28;20026;-70
2021/06/09 00:32:58;;;;;;;3.55;3.20;;;;;;;;;;5101016;28;20027;-71
2021/06/09 00:35:24;;;;;;;3.40;2.92;;;;;;;;;;5109252;28;20035;-70
2021/06/09 00:37:50;;;;;;;3.05;2.65;;;;;;;;;;5113519;28;20024;-69
2021/06/09 00:40:17;;;;;;;4.13;2.83;;;;;;;;;;5112422;28;20379;-71
2021/06/09 00:43:02;;;;;;;3.45;3.05;;;;;;;;;;5093264;28;20092;-70
2021/06/09 00:45:28;;;;;;;3.25;2.78;;;;;;;;;;5105094;28;20083;-70
2021/06/09 00:47:54;;;;;;;3.90;2.45;;;;;;;;;;5089432;28;20386;-70
2021/06/09 00:50:21;;;;;;;3.35;2.45;;;;;;;;;;5112293;28;20098;-70
2021/06/09 00:52:47;;;;;;;3.38;2.50;;;;;;;;;;5112932;28;20133;-70
2021/06/09 00:55:13;;;;;;;3.55;2.60;;;;;;;;;;5097201;28;20028;-70
2021/06/09 00:57:40;;;;;;;3.45;2.67;;;;;;;;;;5092907;28;20020;-70
2021/06/09 01:00:10;;;;;;;5.47;2.67;;;;;;;;;;5092816;28;20028;-70
2021/06/09 01:02:36;;;;;;;2.90;2.22;;;;;;;;;;5099308;28;20034;-71
2021/06/09 01:05:03;;;;;;;3.67;2.88;;;;;;;;;;5114495;28;20027;-70
2021/06/09 01:07:29;;;;;;;3.05;2.53;;;;;;;;;;5104760;28;20073;-70
2021/06/09 01:09:55;;;;;;;2.38;2.17;;;;;;;;;;5075048;28;20024;-69
2021/06/09 01:12:22;;;;;;;2.35;2.10;;;;;;;;;;5111052;28;20027;-70
2021/06/09 01:14:49;;;;;;;2.60;2.40;;;;;;;;;;5108762;28;20055;-71
2021/06/09 01:17:16;;;;;;;2.70;2.22;;;;;;;;;;5111876;28;20028;-70
2021/06/09 01:19:42;;;;;;;2.72;2.20;;;;;;;;;;5092431;28;20058;-70
2021/06/09 01:22:08;;;;;;;2.33;2.00;;;;;;;;;;5104783;28;20049;-70
2021/06/09 01:24:34;;;;;;;2.50;2.30;;;;;;;;;;5110928;28;20151;-71
2021/06/09 01:27:01;;;;;;;2.33;2.00;;;;;;;;;;5109696;28;20024;-70
2021/06/09 01:29:27;;;;;;;2.17;1.98;;;;;;;;;;5104108;28;20028;-70
2021/06/09 01:31:53;;;;;;;2.30;2.10;;;;;;;;;;5104750;28;20024;-70
2021/06/09 01:34:19;;;;;;;3.00;2.30;;;;;;;;;;5080355;28;20390;-72
2021/06/09 01:36:46;;;;;;;2.38;2.10;;;;;;;;;;5114192;28;20099;-72
2021/06/09 01:39:13;;;;;;;1.95;1.75;;;;;;;;;;5090537;28;20030;-70
2021/06/09 01:41:43;;;;;;;3.47;2.33;;;;;;;;;;5097970;28;20040;-71
2021/06/09 01:44:10;;;;;;;2.47;2.28;;;;;;;;;;5093748;28;20035;-71
2021/06/09 01:46:36;;;;;;;2.70;2.50;;;;;;;;;;5108598;28;20020;-71
2021/06/09 01:49:02;;;;;;;3.15;2.55;;;;;;;;;;5112933;28;20046;-70
2021/06/09 01:51:29;;;;;;;2.90;2.35;;;;;;;;;;5108459;28;20050;-70
2021/06/09 01:53:55;;;;;;;2.55;2.35;;;;;;;;;;5099016;28;20110;-70
2021/06/09 01:56:21;;;;;;;2.33;2.10;;;;;;;;;;5097247;28;20012;-71
2021/06/09 01:58:47;;;;;;;3.03;2.65;;;;;;;;;;5098892;28;20043;-70
2021/06/09 02:01:13;;;;;;;2.60;2.40;;;;;;;;;;5097320;28;20056;-72
2021/06/09 02:03:40;;;;;;;2.53;2.20;;;;;;;;;;5100204;28;20031;-71
2021/06/09 02:06:06;;;;;;;3.10;2.03;;;;;;;;;;5113444;28;20035;-72
2021/06/09 02:08:32;;;;;;;2.55;2.10;;;;;;;;;;5116794;28;20385;-69
2021/06/09 02:11:00;;;;;;;2.40;2.20;;;;;;;;;;5112633;28;20027;-70
2021/06/09 02:13:27;;;;;;;3.47;2.13;;;;;;;;;;5095867;28;20020;-71
2021/06/09 02:15:54;;;;;;;2.90;2.40;;;;;;;;;;5098780;28;20047;-70
2021/06/09 02:18:25;;;;;;;2.90;2.38;;;;;;;;;;5097539;28;20028;-69
2021/06/09 02:20:53;;;;;;;2.65;2.25;;;;;;;;;;5114706;28;20024;-70
2021/06/09 02:23:21;;;;;;;3.10;2.13;;;;;;;;;;5096884;28;20056;-70
2021/06/09 02:25:48;;;;;;;2.30;2.10;;;;;;;;;;5096289;28;20020;-71
2021/06/09 02:28:14;;;;;;;2.80;2.40;;;;;;;;;;5097902;28;20113;-71
2021/06/09 02:30:41;;;;;;;2.72;2.28;;;;;;;;;;5109496;28;20016;-69
2021/06/09 02:33:07;;;;;;;2.60;2.10;;;;;;;;;;5111214;28;20024;-71
2021/06/09 02:35:37;;;;;;;2.92;2.20;;;;;;;;;;5106531;28;20081;-71
2021/06/09 02:38:04;;;;;;;2.65;2.45;;;;;;;;;;5117032;28;20027;-71
2021/06/09 02:40:31;;;;;;;3.40;2.60;;;;;;;;;;5099401;28;20028;-71
2021/06/09 02:42:57;;;;;;;2.97;2.15;;;;;;;;;;5101431;28;20041;-71
2021/06/09 02:45:23;;;;;;;2.15;1.95;;;;;;;;;;5108023;28;20107;-71
2021/06/09 02:47:55;;;;;;;2.22;2.03;;;;;;;;;;5130264;27;20023;-70
2021/06/09 02:50:23;;;;;;;2.47;2.28;;;;;;;;;;5109880;27;20103;-70
2021/06/09 02:52:49;;;;;;;2.30;1.88;;;;;;;;;;5084888;28;20393;-71
2021/06/09 02:55:35;;;;;;;2.05;1.80;;;;;;;;;;5115416;28;20020;-72
2021/06/09 02:58:04;;;;;;;4.80;2.00;;;;;;;;;;5100623;28;20036;-71
2021/06/09 03:00:34;;;;;;;3.03;1.90;;;;;;;;;;5095446;28;20479;-70
2021/06/09 03:03:06;;;;;;;3.80;2.20;;;;;;;;;;5099815;28;20474;-70
2021/06/09 03:05:32;;;;;;;2.72;1.95;;;;;;;;;;5087292;28;20554;-69
2021/06/09 03:08:09;;;;;;;2.30;1.98;;;;;;;;;;5115297;28;20027;-70
2021/06/09 03:10:50;;;;;;;2.20;1.77;;;;;;;;;;5094108;28;20419;-70
2021/06/09 03:16:29;;;;;;;2.55;1.85;;;;;;;;;;5070647;28;20118;-71
2021/06/09 03:19:00;;;;;;;1.80;1.70;;;;;;;;;;5094526;28;20468;-71
2021/06/09 03:21:31;;;;;;;2.60;1.80;;;;;;;;;;5095257;28;20097;-71
2021/06/09 03:24:03;;;;;;;2.17;1.98;;;;;;;;;;5112964;28;20028;-70
2021/06/09 03:26:29;;;;;;;2.20;1.90;;;;;;;;;;5111944;28;20020;-71
2021/06/09 03:29:08;;;;;;;2.40;2.13;;;;;;;;;;5094295;28;20024;-72
2021/06/09 03:31:49;;;;;;;1.90;1.70;;;;;;;;;;5100829;28;20058;-72
2021/06/09 03:34:18;;;;;;;1.90;1.70;;;;;;;;;;5107367;28;20106;-70
2021/06/09 03:36:45;;;;;;;2.03;1.83;;;;;;;;;;5094753;28;20111;-70
2021/06/09 03:39:13;;;;;;;2.17;1.98;;;;;;;;;;5094660;28;20024;-71
2021/06/09 03:41:45;;;;;;;2.00;1.65;;;;;;;;;;5102691;28;20023;-70
2021/06/09 03:44:12;;;;;;;2.15;2.00;;;;;;;;;;5112560;28;20027;-70
2021/06/09 03:46:39;;;;;;;2.10;1.83;;;;;;;;;;5095282;28;20501;-71
2021/06/09 03:49:10;;;;;;;2.33;2.00;;;;;;;;;;5094252;28;20012;-70
2021/06/09 03:51:39;;;;;;;2.10;1.90;;;;;;;;;;5094181;28;20040;-71
2021/06/09 03:54:05;;;;;;;2.78;1.90;;;;;;;;;;5093815;28;20485;-70
2021/06/09 03:56:32;;;;;;;2.38;2.15;;;;;;;;;;5097449;28;20397;-71
2021/06/09 03:59:00;;;;;;;2.22;1.90;;;;;;;;;;5106217;28;20069;-70
2021/06/09 04:01:30;;;;;;;2.78;2.15;;;;;;;;;;5109280;28;20285;-74
2021/06/09 04:03:57;;;;;;;2.40;1.70;;;;;;;;;;5105222;28;20028;-72
2021/06/09 04:06:24;;;;;;;2.15;1.90;;;;;;;;;;5110758;28;20041;-71
2021/06/09 04:08:50;;;;;;;1.98;1.80;;;;;;;;;;5099579;28;20020;-71
2021/06/09 04:11:19;;;;;;;2.15;1.70;;;;;;;;;;5093358;28;20575;-72
2021/06/09 04:13:45;;;;;;;1.95;1.75;;;;;;;;;;5097412;28;20019;-71
2021/06/09 04:16:12;;;;;;;3.13;2.00;;;;;;;;;;5113367;28;20070;-70
2021/06/09 04:18:40;;;;;;;2.10;1.80;;;;;;;;;;5108784;28;20090;-71
2021/06/09 04:21:06;;;;;;;3.42;2.00;;;;;;;;;;5093506;28;20024;-71
2021/06/09 04:23:32;;;;;;;2.10;1.90;;;;;;;;;;5106735;28;20028;-71
2021/06/09 04:25:59;;;;;;;2.10;1.77;;;;;;;;;;5098464;28;20383;-71
2021/06/09 04:28:26;;;;;;;2.70;1.73;;;;;;;;;;5093090;28;20028;-71
2021/06/09 04:30:52;;;;;;;2.13;1.92;;;;;;;;;;5098318;28;20024;-71
2021/06/09 04:33:18;;;;;;;2.75;1.83;;;;;;;;;;5098314;28;20023;-71
2021/06/09 04:35:46;;;;;;;2.03;1.83;;;;;;;;;;5103884;28;20027;-70
2021/06/09 04:38:16;;;;;;;2.60;2.03;;;;;;;;;;5113573;28;20023;-71
2021/06/09 04:40:43;;;;;;;2.05;1.80;;;;;;;;;;5111198;28;20486;-70
2021/06/09 04:43:09;;;;;;;2.03;1.83;;;;;;;;;;5108825;28;20058;-70
2021/06/09 04:45:36;;;;;;;2.10;1.90;;;;;;;;;;5101540;28;20082;-71
2021/06/09 04:48:02;;;;;;;2.40;2.00;;;;;;;;;;5093002;28;20023;-70
2021/06/09 04:50:28;;;;;;;2.00;1.75;;;;;;;;;;5093339;28;20046;-70
2021/06/09 04:53:10;;;;;;;2.20;1.98;;;;;;;;;;5102850;28;20108;-70
2021/06/09 04:55:36;;;;;;;2.20;2.00;;;;;;;;;;5092749;28;20118;-71
2021/06/09 04:58:02;;;;;;;2.13;1.77;;;;;;;;;;5092693;28;20104;-70
2021/06/09 05:00:29;;;;;;;2.38;2.00;;;;;;;;;;5093445;28;20028;-70
2021/06/09 05:02:55;;;;;;;1.98;1.80;;;;;;;;;;5092712;28;20035;-71
2021/06/09 05:05:21;;;;;;;1.88;1.70;;;;;;;;;;5092716;28;20486;-70
2021/06/09 05:07:47;;;;;;;1.83;1.73;;;;;;;;;;5092635;28;20075;-70
2021/06/09 05:10:13;;;;;;;1.88;1.77;;;;;;;;;;5092717;28;20020;-70
2021/06/09 05:12:44;;;;;;;1.77;1.67;;;;;;;;;;5092785;28;20016;-70
2021/06/09 05:15:11;;;;;;;2.60;1.90;;;;;;;;;;5093005;28;20585;-71
2021/06/09 05:17:39;;;;;;;1.77;1.60;;;;;;;;;;5092406;28;20486;-71
2021/06/09 05:20:07;;;;;;;1.92;1.73;;;;;;;;;;5099462;28;20027;-70
2021/06/09 05:22:52;;;;;;;2.20;1.60;;;;;;;;;;5112920;28;20482;-71
2021/06/09 05:25:19;;;;;;;2.00;1.80;;;;;;;;;;5112741;28;20036;-70
2021/06/09 05:27:46;;;;;;;1.70;1.60;;;;;;;;;;5112643;28;20045;-71
2021/06/09 05:30:15;;;;;;;1.70;1.60;;;;;;;;;;5104906;28;20105;-71
2021/06/09 05:32:41;;;;;;;2.30;1.60;;;;;;;;;;5102013;28;20470;-71
2021/06/09 05:35:08;;;;;;;1.88;1.70;;;;;;;;;;5117253;28;20534;-71
2021/06/09 05:37:34;;;;;;;1.63;1.52;;;;;;;;;;5105996;28;20047;-71
2021/06/09 05:40:06;;;;;;;2.42;1.70;;;;;;;;;;5098233;28;20548;-71
2021/06/09 05:42:33;;;;;;;1.70;1.60;;;;;;;;;;5079301;28;20031;-70
2021/06/09 05:44:59;;;;;;;1.92;1.67;;;;;;;;;;5097310;28;20023;-71
2021/06/09 05:47:25;;;;;;;2.28;1.77;;;;;;;;;;5097348;28;20391;-70
2021/06/09 05:50:10;;;;;;;1.63;1.48;;;;;;;;;;5103288;28;20024;-70
2021/06/09 05:52:36;;;;;;;1.88;1.67;;;;;;;;;;5117558;28;20015;-71
2021/06/09 05:55:03;;;;;;;1.52;1.42;;;;;;;;;;5098791;28;20505;-71
2021/06/09 05:57:29;;;;;;;1.77;1.60;;;;;;;;;;5108237;28;20039;-71
2021/06/09 05:59:55;;;;;;;1.75;1.50;;;;;;;;;;5098960;28;20432;-70
2021/06/09 06:02:22;;;;;;;1.50;1.40;;;;;;;;;;5098883;28;20030;-71
2021/06/09 06:04:49;;;;;;;1.60;1.50;;;;;;;;;;5098736;28;20031;-71
2021/06/09 06:07:15;;;;;;;1.50;1.40;;;;;;;;;;5107838;28;20606;-71
2021/06/09 06:09:41;;;;;;;3.47;3.15;;;;;;;;;;5118216;28;20041;-70
2021/06/09 06:12:08;;;;;;;1.73;1.60;;;;;;;;;;5119272;28;20027;-71
2021/06/09 06:14:35;;;;;;;2.17;1.77;;;;;;;;;;5119184;28;20048;-69
2021/06/09 06:17:02;;;;;;;2.15;1.70;;;;;;;;;;5108230;28;20044;-71
2021/06/09 06:19:36;;;;;;;1.50;1.40;;;;;;;;;;5116801;28;20023;-71
2021/06/09 06:22:07;;;;;;;1.90;1.80;;;;;;;;;;5119024;28;20445;-71
2021/06/09 06:24:37;;;;;;;2.10;1.70;;;;;;;;;;5106903;28;20224;-70
2021/06/09 06:27:03;;;;;;;1.88;1.65;;;;;;;;;;5080409;28;20028;-71
2021/06/09 06:29:30;;;;;;;1.75;1.65;;;;;;;;;;5098692;28;20419;-71
2021/06/09 06:31:56;;;;;;;1.80;1.70;;;;;;;;;;5105504;28;20087;-71
2021/06/09 06:34:22;;;;;;;2.38;1.60;;;;;;;;;;5118956;28;20028;-71
2021/06/09 06:36:49;;;;;;;1.83;1.60;;;;;;;;;;5118982;28;20038;-71
2021/06/09 06:39:15;;;;;;;1.65;1.42;;;;;;;;;;5118909;28;20023;-70
2021/06/09 06:41:41;;;;;;;1.63;1.52;;;;;;;;;;5105550;28;20016;-70
2021/06/09 06:44:07;;;;;;;1.60;1.48;;;;;;;;;;5097021;28;20024;-71
2021/06/09 06:46:33;;;;;;;1.60;1.50;;;;;;;;;;5095443;28;20044;-71
2021/06/09 06:49:00;;;;;;;1.70;1.60;;;;;;;;;;5095240;28;20031;-71
2021/06/09 06:51:26;;;;;;;1.58;1.48;;;;;;;;;;5095363;28;20513;-71
2021/06/09 06:53:55;;;;;;;1.63;1.52;;;;;;;;;;5101247;28;20428;-69
2021/06/09 06:56:21;;;;;;;1.23;1.23;;;;;;;;;;5116293;28;20106;-70
2021/06/09 06:58:49;;;;;;;1.50;1.40;;;;;;;;;;5095031;28;20024;-71
2021/06/09 07:01:17;;;;;;;1.40;1.30;;;;;;;;;;5101051;28;20023;-69
2021/06/09 07:03:44;;;;;;;1.60;1.50;;;;;;;;;;5110552;28;20019;-70
2021/06/09 07:06:10;;;;;;;1.10;1.10;;;;;;;;;;5112052;28;20486;-71
2021/06/09 07:08:38;;;;;;;1.85;1.02;;;;;;;;;;5111721;28;20390;-70
2021/06/09 07:11:04;;;;;;;1.27;1.20;;;;;;;;;;5111992;28;20038;-72
2021/06/09 07:13:31;;;;;;;1.30;1.20;;;;;;;;;;5111772;28;20051;-70
2021/06/09 07:16:00;;;;;;;1.20;1.20;;;;;;;;;;5096609;28;20089;-71
2021/06/09 07:18:28;;;;;;;1.35;1.27;;;;;;;;;;5106294;28;20490;-69
2021/06/09 07:20:54;;;;;;;1.30;1.20;;;;;;;;;;5111770;28;20502;-72
2021/06/09 07:23:20;;;;;;;1.40;1.30;;;;;;;;;;5106659;28;20053;-70
2021/06/09 07:25:47;;;;;;;1.23;1.23;;;;;;;;;;5107137;28;20132;-71
2021/06/09 07:28:14;;;;;;;1.50;1.40;;;;;;;;;;5111448;28;20024;-69
2021/06/09 07:30:41;;;;;;;1.58;1.42;;;;;;;;;;5111270;28;20020;-70
2021/06/09 07:33:07;;;;;;;1.60;1.50;;;;;;;;;;5094763;28;20031;-69
2021/06/09 07:35:34;;;;;;;1.40;1.30;;;;;;;;;;5091006;28;20039;-71
2021/06/09 07:38:03;;;;;;;1.50;1.40;;;;;;;;;;5090923;28;20043;-71
2021/06/09 07:40:31;;;;;;;1.55;1.20;;;;;;;;;;5096717;28;20031;-71
2021/06/09 07:43:00;;;;;;;1.30;1.20;;;;;;;;;;5108252;28;20091;-71
2021/06/09 07:45:27;;;;;;;1.48;1.38;;;;;;;;;;5104147;28;20039;-70
2021/06/09 07:47:55;;;;;;;1.70;1.20;;;;;;;;;;5090632;28;20107;-70
2021/06/09 07:50:33;;;;;;;1.23;1.20;;;;;;;;;;5091598;28;20020;-70
2021/06/09 07:53:05;;;;;;;1.10;1.10;;;;;;;;;;5093292;28;20390;-69
2021/06/09 07:55:32;;;;;;;1.10;1.10;;;;;;;;;;5103693;28;20035;-71
2021/06/09 07:57:59;;;;;;;1.38;1.27;;;;;;;;;;5106205;28;20036;-69
2021/06/09 08:00:25;;;;;;;1.45;1.20;;;;;;;;;;5109031;28;20031;-69
2021/06/09 08:02:54;;;;;;;1.33;1.23;;;;;;;;;;5095875;28;20035;-71
2021/06/09 08:05:20;;;;;;;1.38;1.27;;;;;;;;;;5101748;28;20523;-70
2021/06/09 08:07:46;;;;;;;1.40;1.30;;;;;;;;;;5098768;28;20020;-70
2021/06/09 08:10:13;;;;;;;1.40;1.30;;;;;;;;;;5102845;28;20023;-69
2021/06/09 08:12:39;;;;;;;1.90;1.40;;;;;;;;;;5078190;28;20135;-70
2021/06/09 08:15:07;;;;;;;1.60;1.48;;;;;;;;;;5092858;28;20076;-70
2021/06/09 08:17:33;;;;;;;1.60;1.50;;;;;;;;;;5093219;28;20074;-69
2021/06/09 08:19:59;;;;;;;1.27;1.17;;;;;;;;;;5110426;28;20028;-68
2021/06/09 08:22:26;;;;;;;1.17;1.17;;;;;;;;;;5096792;28;20495;-69
2021/06/09 08:24:52;;;;;;;1.25;1.13;;;;;;;;;;5107491;28;20517;-70
2021/06/09 08:27:18;;;;;;;1.35;1.20;;;;;;;;;;5093576;28;20070;-70
2021/06/09 08:29:44;;;;;;;1.50;1.40;;;;;;;;;;5091310;28;20066;-70
2021/06/09 08:32:10;;;;;;;1.20;1.20;;;;;;;;;;5099099;28;20513;-70
2021/06/09 08:34:36;;;;;;;1.50;1.40;;;;;;;;;;5092758;28;20028;-71
2021/06/09 08:37:03;;;;;;;3.70;1.83;;;;;;;;;;5096712;28;20036;-71
2021/06/09 08:39:29;;;;;;;3.78;1.70;;;;;;;;;;5097397;28;20032;-70
2021/06/09 08:41:55;;;;;;;1.48;1.38;;;;;;;;;;5097661;28;20039;-70
2021/06/09 08:44:25;;;;;;;1.80;1.63;;;;;;;;;;5090145;28;20027;-70
2021/06/09 08:46:57;;;;;;;3.40;1.73;;;;;;;;;;5094354;28;20020;-69
2021/06/09 08:49:23;;;;;;;2.17;1.73;;;;;;;;;;5104012;28;20102;-70
2021/06/09 08:51:50;;;;;;;2.05;1.60;;;;;;;;;;5100117;28;20031;-71
2021/06/09 08:54:16;;;;;;;1.50;1.40;;;;;;;;;;5090406;28;20020;-70
2021/06/09 08:56:42;;;;;;;2.58;1.77;;;;;;;;;;5096716;28;20103;-70
2021/06/09 08:59:08;;;;;;;1.92;1.70;;;;;;;;;;5099605;28;20024;-71
2021/06/09 09:01:35;;;;;;;2.80;1.85;;;;;;;;;;5099282;28;20111;-68
2021/06/09 09:04:01;;;;;;;2.17;1.98;;;;;;;;;;5093541;28;20212;-71
2021/06/09 09:06:28;;;;;;;2.13;1.90;;;;;;;;;;5092178;28;20028;-69
2021/06/09 09:08:55;;;;;;;2.20;2.00;;;;;;;;;;5087365;28;20515;-69
2021/06/09 09:11:21;;;;;;;2.08;1.90;;;;;;;;;;5093240;28;20051;-69
2021/06/09 09:13:48;;;;;;;2.25;1.90;;;;;;;;;;5089331;28;20607;-72
2021/06/09 09:16:14;;;;;;;3.55;2.13;;;;;;;;;;5099837;28;20521;-71
2021/06/09 09:18:58;;;;;;;2.40;1.95;;;;;;;;;;5088501;28;20047;-70
2021/06/09 09:21:35;;;;;;;4.28;2.00;;;;;;;;;;5090923;28;20070;-71
2021/06/09 09:24:05;;;;;;;2.70;2.10;;;;;;;;;;5094257;28;20494;-70
2021/06/09 09:26:34;;;;;;;2.10;1.90;;;;;;;;;;5099804;28;20031;-71
2021/06/09 09:29:16;;;;;;;3.42;2.10;;;;;;;;;;5096543;28;20028;-71
2021/06/09 09:31:46;;;;;;;2.22;1.92;;;;;;;;;;5091531;28;20107;-70
2021/06/09 09:34:28;;;;;;;2.53;2.00;;;;;;;;;;5092917;28;20024;-72
2021/06/09 09:37:04;;;;;;;2.38;1.90;;;;;;;;;;5088178;28;20627;-72
2021/06/09 09:39:31;;;;;;;3.28;2.10;;;;;;;;;;5085771;28;20545;-70
2021/06/09 09:41:57;;;;;;;3.80;1.90;;;;;;;;;;5087885;28;20575;-71
2021/06/09 09:44:23;;;;;;;2.97;2.60;;;;;;;;;;5090526;28;20031;-70
2021/06/09 09:46:53;;;;;;;2.20;1.70;;;;;;;;;;5108257;28;20038;-70
2021/06/09 09:49:20;;;;;;;2.95;1.80;;;;;;;;;;5071867;28;20024;-71
2021/06/09 09:51:51;;;;;;;2.72;1.73;;;;;;;;;;5079429;28;20027;-68
2021/06/09 09:54:27;;;;;;;2.25;1.70;;;;;;;;;;5104350;28;20056;-69
2021/06/09 09:56:54;;;;;;;3.47;2.10;;;;;;;;;;5104797;28;20081;-68
2021/06/09 09:59:27;;;;;;;2.53;1.75;;;;;;;;;;5101317;28;20504;-71
2021/06/09 10:01:54;;;;;;;1.90;1.70;;;;;;;;;;5087665;28;20052;-71
2021/06/09 10:04:24;;;;;;;2.35;1.70;;;;;;;;;;5096540;28;20124;-71
2021/06/09 10:06:51;;;;;;;2.63;1.77;;;;;;;;;;5107371;28;20110;-70
2021/06/09 10:09:21;;;;;;;2.20;1.60;;;;;;;;;;5103735;28;20024;-71
2021/06/09 10:11:50;;;;;;;1.98;1.80;;;;;;;;;;5089387;28;20028;-71
2021/06/09 10:14:19;;;;;;;1.90;1.52;;;;;;;;;;5095817;28;20511;-71
2021/06/09 10:16:47;;;;;;;2.25;1.55;;;;;;;;;;5077231;28;20129;-71
2021/06/09 10:19:14;;;;;;;3.33;2.22;;;;;;;;;;5070731;28;20024;-69
2021/06/09 10:21:51;;;;;;;2.53;1.73;;;;;;;;;;5078161;28;20032;-71
2021/06/09 10:24:17;;;;;;;1.92;1.63;;;;;;;;;;5080021;28;20313;-69
2021/06/09 10:27:06;;;;;;;1.80;1.70;;;;;;;;;;5075487;28;20474;-70
2021/06/09 10:29:31;;;;;;;1.92;1.58;;;;;;;;;;5087248;28;20062;-71
2021/06/09 10:32:01;;;;;;;1.50;1.40;;;;;;;;;;5082355;28;20020;-73
2021/06/09 10:34:28;;;;;;;1.60;1.50;;;;;;;;;;5084149;28;20028;-72
2021/06/09 10:36:55;;;;;;;1.67;1.58;;;;;;;;;;5084890;28;20525;-69
2021/06/09 10:39:22;;;;;;;1.50;1.40;;;;;;;;;;5076000;28;20034;-71
2021/06/09 10:41:50;;;;;;;1.60;1.50;;;;;;;;;;5072817;28;20467;-73
2021/06/09 10:44:18;;;;;;;1.50;1.40;;;;;;;;;;5079996;28;20042;-71
2021/06/09 10:46:48;;;;;;;1.50;1.40;;;;;;;;;;5073282;28;20510;-73
2021/06/09 10:49:16;;;;;;;1.63;1.52;;;;;;;;;;5077187;28;20533;-71
2021/06/09 10:51:42;;;;;;;1.27;1.27;;;;;;;;;;5084420;28;20035;-71
2021/06/09 10:54:13;;;;;;;1.70;1.48;;;;;;;;;;5075985;28;20028;-73
2021/06/09 10:56:42;;;;;;;1.85;1.73;;;;;;;;;;5081185;28;20487;-70
2021/06/09 10:59:10;;;;;;;2.10;1.63;;;;;;;;;;5083133;28;20032;-72
2021/06/09 11:01:36;;;;;;;3.58;1.80;;;;;;;;;;5077486;28;20108;-72
2021/06/09 11:04:03;;;;;;;1.65;1.55;;;;;;;;;;5076741;28;20029;-70
2021/06/09 11:06:43;;;;;;;3.00;1.67;;;;;;;;;;5079574;28;20098;-72
2021/06/09 11:09:12;;;;;;;3.30;1.88;;;;;;;;;;5071854;28;20055;-72
2021/06/09 11:11:38;;;;;;;1.70;1.60;;;;;;;;;;5072226;28;20570;-71
2021/06/09 11:14:21;;;;;;;2.15;1.95;;;;;;;;;;5071065;28;20025;-72
2021/06/09 11:16:52;;;;;;;2.25;1.70;;;;;;;;;;5093046;28;20114;-71
2021/06/09 11:19:33;;;;;;;1.80;1.70;;;;;;;;;;5091792;28;20111;-72
2021/06/09 11:22:15;;;;;;;2.10;1.90;;;;;;;;;;5100219;28;20015;-70
2021/06/09 11:24:41;;;;;;;2.00;1.80;;;;;;;;;;5093336;28;20047;-69
2021/06/09 11:27:36;;;;;;;2.20;2.00;;;;;;;;;;5107034;28;20024;-72
2021/06/09 11:30:21;;;;;;;2.30;2.10;;;;;;;;;;5077344;28;20040;-71
2021/06/09 11:32:47;;;;;;;2.42;2.13;;;;;;;;;;5097968;28;20536;-71
2021/06/09 11:35:13;;;;;;;2.67;1.95;;;;;;;;;;5082390;28;20031;-72
2021/06/09 11:37:39;;;;;;;2.45;2.25;;;;;;;;;;5090591;28;20028;-70
2021/06/09 11:40:06;;;;;;;4.03;2.50;;;;;;;;;;5093198;28;20062;-72
2021/06/09 11:42:32;;;;;;;2.42;2.20;;;;;;;;;;5099437;28;20032;-71
2021/06/09 11:45:18;;;;;;;3.17;2.63;;;;;;;;;;5100014;28;20028;-71
2021/06/09 11:47:44;;;;;;;3.10;2.80;;;;;;;;;;5092911;28;20107;-73
2021/06/09 11:50:30;;;;;;;3.08;2.30;;;;;;;;;;5103865;28;20032;-71
2021/06/09 11:53:14;;;;;;;3.00;2.80;;;;;;;;;;5099373;28;20501;-72
2021/06/09 11:55:40;;;;;;;2.83;2.63;;;;;;;;;;5097095;28;20035;-72
2021/06/09 11:58:08;;;;;;;2.65;2.45;;;;;;;;;;5090886;28;20197;-69
2021/06/09 12:00:34;;;;;;;3.33;3.03;;;;;;;;;;5076363;28;20554;-71
2021/06/09 12:03:26;;;;;;;3.60;2.90;;;;;;;;;;5089231;28;20032;-71
2021/06/09 12:05:52;;;;;;;3.15;2.83;;;;;;;;;;5076113;28;20082;-70
2021/06/09 12:08:20;;;;;;;5.40;2.90;;;;;;;;;;5109799;28;20031;-71
2021/06/09 12:10:53;;;;;;;3.20;2.90;;;;;;;;;;5108878;28;20024;-71
2021/06/09 12:13:28;;;;;;;3.22;2.88;;;;;;;;;;5108574;28;20031;-72
2021/06/09 12:16:13;;;;;;;3.97;3.30;;;;;;;;;;5108241;28;20054;-70
2021/06/09 12:18:39;;;;;;;4.00;3.17;;;;;;;;;;5088363;28;20111;-70
2021/06/09 12:21:12;;;;;;;4.20;3.30;;;;;;;;;;5096573;28;20094;-72
2021/06/09 12:23:50;;;;;;;4.65;3.38;;;;;;;;;;5109325;28;20517;-70
2021/06/09 12:26:16;;;;;;;3.08;2.78;;;;;;;;;;5109742;28;20087;-72
2021/06/09 12:28:42;;;;;;;3.15;2.85;;;;;;;;;;5109945;28;20088;-72
2021/06/09 12:31:11;;;;;;;3.50;3.20;;;;;;;;;;5104885;28;20020;-71
2021/06/09 12:33:41;;;;;;;3.22;2.92;;;;;;;;;;5089454;28;20111;-71
2021/06/09 12:36:08;;;;;;;4.10;3.45;;;;;;;;;;5090002;28;20027;-71
2021/06/09 12:38:34;;;;;;;3.42;3.13;;;;;;;;;;5102263;28;20024;-72
2021/06/09 12:41:01;;;;;;;3.42;3.13;;;;;;;;;;5109991;28;20077;-71
2021/06/09 12:43:27;;;;;;;3.50;3.20;;;;;;;;;;5109991;28;20024;-70
2021/06/09 12:45:53;;;;;;;3.60;3.30;;;;;;;;;;5101088;28;20112;-67
2021/06/09 12:48:20;;;;;;;3.72;3.42;;;;;;;;;;5094629;28;20456;-71
2021/06/09 12:50:50;;;;;;;4.05;3.70;;;;;;;;;;5105396;28;20027;-71
2021/06/09 12:53:20;;;;;;;3.53;3.20;;;;;;;;;;5093210;28;20031;-72
2021/06/09 12:55:47;;;;;;;3.47;3.17;;;;;;;;;;5094023;28;20062;-72
2021/06/09 12:58:14;;;;;;;3.53;3.17;;;;;;;;;;5091624;28;20115;-72
2021/06/09 13:00:41;;;;;;;3.65;3.35;;;;;;;;;;5091233;28;20032;-71
2021/06/09 13:03:25;;;;;;;3.22;2.70;;;;;;;;;;5095832;28;20084;-67
2021/06/09 13:05:51;;;;;;;3.72;3.42;;;;;;;;;;5092655;28;20493;-72
2021/06/09 13:08:19;;;;;;;3.50;3.20;;;;;;;;;;5099616;28;20464;-71
2021/06/09 13:10:46;;;;;;;5.15;3.45;;;;;;;;;;5091507;28;20024;-73
2021/06/09 13:13:14;;;;;;;3.85;3.53;;;;;;;;;;5096202;28;20034;-71
2021/06/09 13:15:41;;;;;;;4.57;3.80;;;;;;;;;;5088136;28;20097;-72
2021/06/09 13:18:08;;;;;;;4.18;3.55;;;;;;;;;;5070501;28;20042;-72
2021/06/09 13:20:34;;;;;;;3.80;3.50;;;;;;;;;;5092065;28;20786;-71
2021/06/09 13:23:03;;;;;;;3.97;3.60;;;;;;;;;;5089133;28;20533;-71
2021/06/09 13:25:33;;;;;;;3.70;3.40;;;;;;;;;;5089699;28;21755;-73
2021/06/09 13:27:59;;;;;;;4.60;4.07;;;;;;;;;;5087195;28;20028;-72
2021/06/09 13:30:25;;;;;;;6.97;4.10;;;;;;;;;;5091856;28;20035;-71
2021/06/09 13:32:53;;;;;;;5.68;3.47;;;;;;;;;;5088556;28;20370;-72
2021/06/09 13:35:21;;;;;;;10.40;4.15;;;;;;;;;;5094788;28;20384;-71
2021/06/09 13:37:52;;;;;;;8.15;3.70;;;;;;;;;;5071373;28;20035;-68
2021/06/09 13:40:24;;;;;;;3.85;3.42;;;;;;;;;;5087462;28;20016;-70
2021/06/09 13:42:56;;;;;;;6.03;3.40;;;;;;;;;;5088890;28;20032;-70
2021/06/09 13:45:24;;;;;;;5.57;3.53;;;;;;;;;;5083250;28;20047;-69
2021/06/09 13:48:01;;;;;;;4.97;3.25;;;;;;;;;;5087683;28;20031;-69
2021/06/09 13:50:27;;;;;;;5.43;3.60;;;;;;;;;;5087633;28;20025;-71
2021/06/09 13:53:04;;;;;;;3.50;3.20;;;;;;;;;;5095274;28;20032;-70
2021/06/09 13:55:30;;;;;;;5.95;3.50;;;;;;;;;;5092353;28;20039;-71
2021/06/09 13:57:56;;;;;;;3.60;3.30;;;;;;;;;;5091477;28;20055;-69
2021/06/09 14:00:26;;;;;;;3.60;3.25;;;;;;;;;;5092675;28;20494;-70
2021/06/09 14:02:52;;;;;;;5.85;3.40;;;;;;;;;;5102611;28;20027;-71
2021/06/09 14:05:19;;;;;;;5.53;3.30;;;;;;;;;;5081739;28;20032;-73
2021/06/09 14:07:48;;;;;;;3.90;3.50;;;;;;;;;;5105947;28;20136;-70
2021/06/09 14:10:16;;;;;;;3.95;3.53;;;;;;;;;;5108307;28;20030;-71
2021/06/09 14:12:46;;;;;;;3.92;3.10;;;;;;;;;;5102636;28;20500;-71
2021/06/09 14:15:29;;;;;;;4.35;3.40;;;;;;;;;;5095857;28;20039;-71
2021/06/09 14:17:56;;;;;;;4.45;3.38;;;;;;;;;;5091496;28;20165;-70
2021/06/09 14:20:24;;;;;;;3.72;3.00;;;;;;;;;;5103054;28;20515;-71
2021/06/09 14:22:52;;;;;;;3.35;3.05;;;;;;;;;;5078009;28;20024;-70
2021/06/09 14:25:27;;;;;;;3.60;2.90;;;;;;;;;;5099626;28;20042;-69
2021/06/09 14:27:53;;;;;;;;;;;;;;;;;;5091773;28;20027;-69
2021/06/09 14:30:23;;;;;;;4.53;3.20;;;;;;;;;;5099309;28;20298;-70
2021/06/09 14:33:07;;;;;;;3.25;2.95;;;;;;;;;;5109552;28;20020;-71
2021/06/09 14:35:34;;;;;;;3.20;2.88;;;;;;;;;;5094645;28;20036;-70
2021/06/09 14:38:00;;;;;;;3.50;3.20;;;;;;;;;;5090246;28;20032;-71
2021/06/09 14:40:27;;;;;;;3.67;3.38;;;;;;;;;;5092182;28;20055;-70
2021/06/09 14:43:04;;;;;;;4.53;4.03;;;;;;;;;;5090961;28;20423;-71
2021/06/09 14:45:31;;;;;;;4.05;3.58;;;;;;;;;;5091073;28;20031;-71
2021/06/09 14:48:30;;;;;;;4.50;3.25;;;;;;;;;;5098458;27;20024;-71
2021/06/09 14:51:06;;;;;;;4.15;3.78;;;;;;;;;;5102474;28;20034;-71
2021/06/09 14:53:33;;;;;;;3.65;3.33;;;;;;;;;;5099364;28;20024;-71
2021/06/09 14:55:59;;;;;;;5.18;3.47;;;;;;;;;;5108238;28;20080;-71